sensor_id;sensor_type;location;lat;lon;timestamp;P1;durP1;ratioP1;P2;durP2;ratioP2
7383;SDS011;3733;47.994;8.820;2022-11-03T00:00:54;59.13;;;7.60;;
7383;SDS011;3733;47.994;8.820;2022-11-03T00:03:19;21.90;;;5.60;;
7383;SDS011;3733;47.994;8.820;2022-11-03T00:05:45;17.83;;;5.80;;
7383;SDS011;3733;47.994;8.820;2022-11-03T00:08:42;27.83;;;6.80;;
7383;SDS011;3733;47.994;8.820;2022-11-03T00:11:12;12.03;;;4.90;;
7383;SDS011;3733;47.994;8.820;2022-11-03T00:13:39;6.30;;;4.77;;
7383;SDS011;3733;47.994;8.820;2022-11-03T00:16:06;11.50;;;5.03;;
7383;SDS011;3733;47.994;8.820;2022-11-03T00:18:33;8.10;;;5.00;;
7383;SDS011;3733;47.994;8.820;2022-11-03T00:21:00;14.77;;;5.93;;
7383;SDS011;3733;47.994;8.820;2022-11-03T00:23:40;15.60;;;5.60;;
7383;SDS011;3733;47.994;8.820;2022-11-03T00:26:20;23.27;;;5.77;;
7383;SDS011;3733;47.994;8.820;2022-11-03T00:28:48;11.10;;;5.63;;
7383;SDS011;3733;47.994;8.820;2022-11-03T00:31:17;11.40;;;6.00;;
7383;SDS011;3733;47.994;8.820;2022-11-03T00:33:48;9.73;;;5.20;;
7383;SDS011;3733;47.994;8.820;2022-11-03T00:36:16;9.33;;;4.63;;
7383;SDS011;3733;47.994;8.820;2022-11-03T00:38:43;13.13;;;6.00;;
7383;SDS011;3733;47.994;8.820;2022-11-03T00:41:10;12.93;;;5.10;;
7383;SDS011;3733;47.994;8.820;2022-11-03T00:43:36;8.23;;;4.47;;
7383;SDS011;3733;47.994;8.820;2022-11-03T00:46:02;15.60;;;4.73;;
7383;SDS011;3733;47.994;8.820;2022-11-03T00:48:29;24.97;;;5.00;;
7383;SDS011;3733;47.994;8.820;2022-11-03T00:53:41;6.53;;;4.23;;
7383;SDS011;3733;47.994;8.820;2022-11-03T00:56:12;6.70;;;4.17;;
7383;SDS011;3733;47.994;8.820;2022-11-03T00:58:39;46.13;;;5.63;;
7383;SDS011;3733;47.994;8.820;2022-11-03T01:01:10;11.90;;;4.73;;
7383;SDS011;3733;47.994;8.820;2022-11-03T01:03:38;22.03;;;5.53;;
7383;SDS011;3733;47.994;8.820;2022-11-03T01:06:09;17.47;;;5.03;;
7383;SDS011;3733;47.994;8.820;2022-11-03T01:08:54;36.03;;;5.93;;
7383;SDS011;3733;47.994;8.820;2022-11-03T01:11:21;5.93;;;4.40;;
7383;SDS011;3733;47.994;8.820;2022-11-03T01:14:07;12.03;;;4.33;;
7383;SDS011;3733;47.994;8.820;2022-11-03T01:16:34;8.73;;;4.33;;
7383;SDS011;3733;47.994;8.820;2022-11-03T01:18:59;25.10;;;4.50;;
7383;SDS011;3733;47.994;8.820;2022-11-03T01:21:25;14.20;;;4.40;;
7383;SDS011;3733;47.994;8.820;2022-11-03T01:23:51;21.90;;;4.73;;
7383;SDS011;3733;47.994;8.820;2022-11-03T01:26:16;33.63;;;4.83;;
7383;SDS011;3733;47.994;8.820;2022-11-03T01:28:43;8.70;;;3.60;;
7383;SDS011;3733;47.994;8.820;2022-11-03T01:31:12;15.67;;;4.80;;
7383;SDS011;3733;47.994;8.820;2022-11-03T01:33:40;7.60;;;3.90;;
7383;SDS011;3733;47.994;8.820;2022-11-03T01:36:06;37.20;;;4.50;;
7383;SDS011;3733;47.994;8.820;2022-11-03T01:38:33;11.43;;;4.70;;
7383;SDS011;3733;47.994;8.820;2022-11-03T01:41:00;19.43;;;4.50;;
7383;SDS011;3733;47.994;8.820;2022-11-03T01:43:28;12.93;;;4.27;;
7383;SDS011;3733;47.994;8.820;2022-11-03T01:46:28;16.50;;;4.20;;
7383;SDS011;3733;47.994;8.820;2022-11-03T01:48:59;20.37;;;4.30;;
7383;SDS011;3733;47.994;8.820;2022-11-03T01:51:32;22.27;;;4.10;;
7383;SDS011;3733;47.994;8.820;2022-11-03T01:54:00;29.57;;;3.90;;
7383;SDS011;3733;47.994;8.820;2022-11-03T01:56:29;21.53;;;4.40;;
7383;SDS011;3733;47.994;8.820;2022-11-03T01:58:58;26.77;;;4.90;;
7383;SDS011;3733;47.994;8.820;2022-11-03T02:01:24;15.27;;;3.77;;
7383;SDS011;3733;47.994;8.820;2022-11-03T02:03:51;52.40;;;5.27;;
7383;SDS011;3733;47.994;8.820;2022-11-03T02:06:24;58.03;;;6.50;;
7383;SDS011;3733;47.994;8.820;2022-11-03T02:08:57;8.97;;;4.13;;
7383;SDS011;3733;47.994;8.820;2022-11-03T02:11:29;61.50;;;5.47;;
7383;SDS011;3733;47.994;8.820;2022-11-03T02:14:14;19.13;;;4.10;;
7383;SDS011;3733;47.994;8.820;2022-11-03T02:16:41;50.87;;;5.00;;
7383;SDS011;3733;47.994;8.820;2022-11-03T02:19:20;19.10;;;4.67;;
7383;SDS011;3733;47.994;8.820;2022-11-03T02:24:49;81.97;;;5.40;;
7383;SDS011;3733;47.994;8.820;2022-11-03T02:27:34;80.40;;;7.83;;
7383;SDS011;3733;47.994;8.820;2022-11-03T02:29:59;53.27;;;5.33;;
7383;SDS011;3733;47.994;8.820;2022-11-03T02:32:28;30.80;;;4.03;;
7383;SDS011;3733;47.994;8.820;2022-11-03T02:35:19;48.23;;;5.33;;
7383;SDS011;3733;47.994;8.820;2022-11-03T02:37:54;10.83;;;3.80;;
7383;SDS011;3733;47.994;8.820;2022-11-03T02:40:33;13.03;;;4.20;;
7383;SDS011;3733;47.994;8.820;2022-11-03T02:43:03;34.60;;;4.77;;
7383;SDS011;3733;47.994;8.820;2022-11-03T02:45:31;32.77;;;6.47;;
7383;SDS011;3733;47.994;8.820;2022-11-03T02:47:58;58.90;;;6.30;;
7383;SDS011;3733;47.994;8.820;2022-11-03T02:50:30;9.97;;;4.47;;
7383;SDS011;3733;47.994;8.820;2022-11-03T02:52:57;21.37;;;4.50;;
7383;SDS011;3733;47.994;8.820;2022-11-03T03:00:28;26.47;;;4.63;;
7383;SDS011;3733;47.994;8.820;2022-11-03T03:05:47;7.50;;;3.57;;
7383;SDS011;3733;47.994;8.820;2022-11-03T03:08:16;11.50;;;3.70;;
7383;SDS011;3733;47.994;8.820;2022-11-03T03:10:45;44.10;;;4.13;;
7383;SDS011;3733;47.994;8.820;2022-11-03T03:13:13;27.57;;;4.00;;
7383;SDS011;3733;47.994;8.820;2022-11-03T03:15:59;8.70;;;3.30;;
7383;SDS011;3733;47.994;8.820;2022-11-03T03:21:21;16.43;;;3.03;;
7383;SDS011;3733;47.994;8.820;2022-11-03T03:24:00;15.40;;;3.33;;
7383;SDS011;3733;47.994;8.820;2022-11-03T03:26:35;8.73;;;3.30;;
7383;SDS011;3733;47.994;8.820;2022-11-03T03:29:09;56.77;;;4.83;;
7383;SDS011;3733;47.994;8.820;2022-11-03T03:31:47;9.60;;;3.50;;
7383;SDS011;3733;47.994;8.820;2022-11-03T03:34:20;15.33;;;3.87;;
7383;SDS011;3733;47.994;8.820;2022-11-03T03:36:49;19.57;;;3.67;;
7383;SDS011;3733;47.994;8.820;2022-11-03T03:39:15;6.40;;;3.53;;
7383;SDS011;3733;47.994;8.820;2022-11-03T03:41:44;8.30;;;3.90;;
7383;SDS011;3733;47.994;8.820;2022-11-03T03:44:12;11.93;;;3.60;;
7383;SDS011;3733;47.994;8.820;2022-11-03T03:46:43;15.60;;;3.63;;
7383;SDS011;3733;47.994;8.820;2022-11-03T03:49:16;11.00;;;3.37;;
7383;SDS011;3733;47.994;8.820;2022-11-03T03:51:42;13.80;;;3.73;;
7383;SDS011;3733;47.994;8.820;2022-11-03T03:54:10;6.53;;;3.50;;
7383;SDS011;3733;47.994;8.820;2022-11-03T03:56:40;10.60;;;3.93;;
7383;SDS011;3733;47.994;8.820;2022-11-03T03:59:12;14.20;;;3.50;;
7383;SDS011;3733;47.994;8.820;2022-11-03T04:01:38;5.50;;;3.10;;
7383;SDS011;3733;47.994;8.820;2022-11-03T04:04:03;8.70;;;3.63;;
7383;SDS011;3733;47.994;8.820;2022-11-03T04:06:29;17.20;;;4.13;;
7383;SDS011;3733;47.994;8.820;2022-11-03T04:08:55;19.13;;;5.23;;
7383;SDS011;3733;47.994;8.820;2022-11-03T04:11:21;22.57;;;4.83;;
7383;SDS011;3733;47.994;8.820;2022-11-03T04:14:05;27.53;;;4.30;;
7383;SDS011;3733;47.994;8.820;2022-11-03T04:16:55;15.73;;;4.00;;
7383;SDS011;3733;47.994;8.820;2022-11-03T04:19:39;8.00;;;4.10;;
7383;SDS011;3733;47.994;8.820;2022-11-03T04:22:25;5.60;;;3.80;;
7383;SDS011;3733;47.994;8.820;2022-11-03T04:24:54;16.43;;;4.10;;
7383;SDS011;3733;47.994;8.820;2022-11-03T04:30:14;22.93;;;3.60;;
7383;SDS011;3733;47.994;8.820;2022-11-03T04:32:50;24.10;;;3.97;;
7383;SDS011;3733;47.994;8.820;2022-11-03T04:35:18;12.07;;;3.50;;
7383;SDS011;3733;47.994;8.820;2022-11-03T04:37:53;12.33;;;3.17;;
7383;SDS011;3733;47.994;8.820;2022-11-03T04:40:22;13.10;;;3.10;;
7383;SDS011;3733;47.994;8.820;2022-11-03T04:42:48;73.77;;;5.30;;
7383;SDS011;3733;47.994;8.820;2022-11-03T04:47:51;10.50;;;3.87;;
7383;SDS011;3733;47.994;8.820;2022-11-03T04:50:18;35.20;;;5.20;;
7383;SDS011;3733;47.994;8.820;2022-11-03T04:52:46;9.50;;;3.33;;
7383;SDS011;3733;47.994;8.820;2022-11-03T04:55:16;15.50;;;3.57;;
7383;SDS011;3733;47.994;8.820;2022-11-03T04:57:44;10.53;;;2.90;;
7383;SDS011;3733;47.994;8.820;2022-11-03T05:00:17;11.80;;;3.30;;
7383;SDS011;3733;47.994;8.820;2022-11-03T05:02:44;20.00;;;4.17;;
7383;SDS011;3733;47.994;8.820;2022-11-03T05:05:19;26.40;;;4.53;;
7383;SDS011;3733;47.994;8.820;2022-11-03T05:07:46;6.67;;;3.47;;
7383;SDS011;3733;47.994;8.820;2022-11-03T05:10:17;6.73;;;3.57;;
7383;SDS011;3733;47.994;8.820;2022-11-03T05:12:47;12.17;;;3.67;;
7383;SDS011;3733;47.994;8.820;2022-11-03T05:18:03;15.80;;;3.10;;
7383;SDS011;3733;47.994;8.820;2022-11-03T05:21:12;25.07;;;3.70;;
7383;SDS011;3733;47.994;8.820;2022-11-03T05:23:45;33.93;;;4.40;;
7383;SDS011;3733;47.994;8.820;2022-11-03T05:26:21;57.47;;;9.50;;
7383;SDS011;3733;47.994;8.820;2022-11-03T05:31:41;31.97;;;5.80;;
7383;SDS011;3733;47.994;8.820;2022-11-03T05:41:59;12.80;;;4.20;;
7383;SDS011;3733;47.994;8.820;2022-11-03T05:46:57;13.90;;;3.80;;
7383;SDS011;3733;47.994;8.820;2022-11-03T05:49:24;37.70;;;4.70;;
7383;SDS011;3733;47.994;8.820;2022-11-03T05:51:52;5.10;;;3.50;;
7383;SDS011;3733;47.994;8.820;2022-11-03T05:54:27;11.20;;;3.30;;
7383;SDS011;3733;47.994;8.820;2022-11-03T05:56:57;9.53;;;3.60;;
7383;SDS011;3733;47.994;8.820;2022-11-03T05:59:23;6.93;;;3.60;;
7383;SDS011;3733;47.994;8.820;2022-11-03T06:01:53;28.37;;;3.70;;
7383;SDS011;3733;47.994;8.820;2022-11-03T06:07:03;8.83;;;3.63;;
7383;SDS011;3733;47.994;8.820;2022-11-03T06:09:38;6.13;;;3.27;;
7383;SDS011;3733;47.994;8.820;2022-11-03T06:12:04;7.90;;;3.70;;
7383;SDS011;3733;47.994;8.820;2022-11-03T06:14:34;24.47;;;4.03;;
7383;SDS011;3733;47.994;8.820;2022-11-03T06:17:01;20.03;;;4.27;;
7383;SDS011;3733;47.994;8.820;2022-11-03T06:19:30;24.30;;;4.03;;
7383;SDS011;3733;47.994;8.820;2022-11-03T06:22:10;13.73;;;3.60;;
7383;SDS011;3733;47.994;8.820;2022-11-03T06:24:44;10.97;;;3.93;;
7383;SDS011;3733;47.994;8.820;2022-11-03T06:27:17;14.07;;;4.93;;
7383;SDS011;3733;47.994;8.820;2022-11-03T06:29:51;13.53;;;3.90;;
7383;SDS011;3733;47.994;8.820;2022-11-03T06:32:21;24.07;;;5.10;;
7383;SDS011;3733;47.994;8.820;2022-11-03T06:34:48;13.97;;;5.13;;
7383;SDS011;3733;47.994;8.820;2022-11-03T06:39:45;14.70;;;4.47;;
7383;SDS011;3733;47.994;8.820;2022-11-03T06:42:12;16.53;;;4.00;;
7383;SDS011;3733;47.994;8.820;2022-11-03T06:44:43;21.87;;;4.17;;
7383;SDS011;3733;47.994;8.820;2022-11-03T06:47:16;10.77;;;3.93;;
7383;SDS011;3733;47.994;8.820;2022-11-03T06:49:48;16.57;;;4.83;;
7383;SDS011;3733;47.994;8.820;2022-11-03T06:52:23;24.67;;;4.60;;
7383;SDS011;3733;47.994;8.820;2022-11-03T06:57:23;15.13;;;4.10;;
7383;SDS011;3733;47.994;8.820;2022-11-03T06:59:49;13.50;;;3.43;;
7383;SDS011;3733;47.994;8.820;2022-11-03T07:02:38;36.53;;;4.20;;
7383;SDS011;3733;47.994;8.820;2022-11-03T07:05:23;13.60;;;4.33;;
7383;SDS011;3733;47.994;8.820;2022-11-03T07:07:58;31.73;;;4.40;;
7383;SDS011;3733;47.994;8.820;2022-11-03T07:10:30;8.93;;;4.07;;
7383;SDS011;3733;47.994;8.820;2022-11-03T07:12:58;12.37;;;4.13;;
7383;SDS011;3733;47.994;8.820;2022-11-03T07:15:31;12.17;;;4.53;;
7383;SDS011;3733;47.994;8.820;2022-11-03T07:17:59;14.37;;;5.30;;
7383;SDS011;3733;47.994;8.820;2022-11-03T07:20:26;6.37;;;3.70;;
7383;SDS011;3733;47.994;8.820;2022-11-03T07:22:52;22.90;;;4.20;;
7383;SDS011;3733;47.994;8.820;2022-11-03T07:25:20;25.63;;;4.67;;
7383;SDS011;3733;47.994;8.820;2022-11-03T07:27:47;24.97;;;4.67;;
7383;SDS011;3733;47.994;8.820;2022-11-03T07:30:34;21.90;;;4.33;;
7383;SDS011;3733;47.994;8.820;2022-11-03T07:33:01;16.20;;;3.90;;
7383;SDS011;3733;47.994;8.820;2022-11-03T07:35:43;17.50;;;4.30;;
7383;SDS011;3733;47.994;8.820;2022-11-03T07:38:10;21.03;;;4.17;;
7383;SDS011;3733;47.994;8.820;2022-11-03T07:40:39;8.27;;;3.60;;
7383;SDS011;3733;47.994;8.820;2022-11-03T07:43:21;19.63;;;4.20;;
7383;SDS011;3733;47.994;8.820;2022-11-03T07:46:00;9.67;;;3.63;;
7383;SDS011;3733;47.994;8.820;2022-11-03T07:48:32;7.30;;;3.77;;
7383;SDS011;3733;47.994;8.820;2022-11-03T07:54:18;7.43;;;3.60;;
7383;SDS011;3733;47.994;8.820;2022-11-03T07:56:45;10.33;;;3.87;;
7383;SDS011;3733;47.994;8.820;2022-11-03T07:59:15;6.67;;;3.73;;
7383;SDS011;3733;47.994;8.820;2022-11-03T08:01:48;13.80;;;4.17;;
7383;SDS011;3733;47.994;8.820;2022-11-03T08:04:31;6.03;;;3.80;;
7383;SDS011;3733;47.994;8.820;2022-11-03T08:06:59;10.13;;;4.00;;
7383;SDS011;3733;47.994;8.820;2022-11-03T08:09:25;13.17;;;4.47;;
7383;SDS011;3733;47.994;8.820;2022-11-03T08:11:51;12.13;;;4.20;;
7383;SDS011;3733;47.994;8.820;2022-11-03T08:14:17;6.03;;;3.93;;
7383;SDS011;3733;47.994;8.820;2022-11-03T08:16:43;9.40;;;4.10;;
7383;SDS011;3733;47.994;8.820;2022-11-03T08:19:09;26.33;;;4.97;;
7383;SDS011;3733;47.994;8.820;2022-11-03T08:21:35;11.53;;;4.70;;
7383;SDS011;3733;47.994;8.820;2022-11-03T08:24:00;12.53;;;5.50;;
7383;SDS011;3733;47.994;8.820;2022-11-03T08:26:26;12.83;;;7.10;;
7383;SDS011;3733;47.994;8.820;2022-11-03T08:28:52;13.27;;;6.60;;
7383;SDS011;3733;47.994;8.820;2022-11-03T08:31:17;11.50;;;6.07;;
7383;SDS011;3733;47.994;8.820;2022-11-03T08:33:43;17.17;;;6.50;;
7383;SDS011;3733;47.994;8.820;2022-11-03T08:36:08;12.93;;;6.63;;
7383;SDS011;3733;47.994;8.820;2022-11-03T08:38:35;18.73;;;6.80;;
7383;SDS011;3733;47.994;8.820;2022-11-03T08:41:01;28.37;;;7.13;;
7383;SDS011;3733;47.994;8.820;2022-11-03T08:43:27;19.10;;;5.53;;
7383;SDS011;3733;47.994;8.820;2022-11-03T08:45:53;13.30;;;5.43;;
7383;SDS011;3733;47.994;8.820;2022-11-03T08:48:27;17.63;;;6.10;;
7383;SDS011;3733;47.994;8.820;2022-11-03T08:50:53;10.30;;;5.00;;
7383;SDS011;3733;47.994;8.820;2022-11-03T08:53:20;12.33;;;6.10;;
7383;SDS011;3733;47.994;8.820;2022-11-03T08:55:46;23.00;;;6.33;;
7383;SDS011;3733;47.994;8.820;2022-11-03T08:58:12;16.60;;;6.00;;
7383;SDS011;3733;47.994;8.820;2022-11-03T09:00:38;19.50;;;5.50;;
7383;SDS011;3733;47.994;8.820;2022-11-03T09:03:03;10.77;;;6.10;;
7383;SDS011;3733;47.994;8.820;2022-11-03T09:05:29;10.23;;;5.77;;
7383;SDS011;3733;47.994;8.820;2022-11-03T09:07:55;20.13;;;6.37;;
7383;SDS011;3733;47.994;8.820;2022-11-03T09:10:21;16.73;;;6.03;;
7383;SDS011;3733;47.994;8.820;2022-11-03T09:12:46;13.03;;;6.10;;
7383;SDS011;3733;47.994;8.820;2022-11-03T09:15:12;10.97;;;5.77;;
7383;SDS011;3733;47.994;8.820;2022-11-03T09:17:37;15.17;;;6.30;;
7383;SDS011;3733;47.994;8.820;2022-11-03T09:20:04;17.33;;;5.93;;
7383;SDS011;3733;47.994;8.820;2022-11-03T09:22:30;18.03;;;7.33;;
7383;SDS011;3733;47.994;8.820;2022-11-03T09:24:56;11.67;;;6.13;;
7383;SDS011;3733;47.994;8.820;2022-11-03T09:27:22;21.13;;;8.10;;
7383;SDS011;3733;47.994;8.820;2022-11-03T09:29:48;19.40;;;7.70;;
7383;SDS011;3733;47.994;8.820;2022-11-03T09:32:13;19.13;;;8.10;;
7383;SDS011;3733;47.994;8.820;2022-11-03T09:34:40;17.53;;;9.20;;
7383;SDS011;3733;47.994;8.820;2022-11-03T09:37:06;13.70;;;8.17;;
7383;SDS011;3733;47.994;8.820;2022-11-03T09:39:32;15.20;;;8.47;;
7383;SDS011;3733;47.994;8.820;2022-11-03T09:41:58;18.77;;;8.43;;
7383;SDS011;3733;47.994;8.820;2022-11-03T09:44:27;15.27;;;8.20;;
7383;SDS011;3733;47.994;8.820;2022-11-03T09:46:53;31.30;;;8.50;;
7383;SDS011;3733;47.994;8.820;2022-11-03T09:49:18;17.20;;;8.43;;
7383;SDS011;3733;47.994;8.820;2022-11-03T09:51:45;19.10;;;8.60;;
7383;SDS011;3733;47.994;8.820;2022-11-03T09:54:12;16.57;;;8.50;;
7383;SDS011;3733;47.994;8.820;2022-11-03T09:56:39;13.63;;;7.80;;
7383;SDS011;3733;47.994;8.820;2022-11-03T09:59:15;15.83;;;8.47;;
7383;SDS011;3733;47.994;8.820;2022-11-03T10:01:43;15.57;;;9.50;;
7383;SDS011;3733;47.994;8.820;2022-11-03T10:04:12;15.00;;;9.17;;
7383;SDS011;3733;47.994;8.820;2022-11-03T10:06:38;23.13;;;9.20;;
7383;SDS011;3733;47.994;8.820;2022-11-03T10:09:04;12.03;;;8.70;;
7383;SDS011;3733;47.994;8.820;2022-11-03T10:11:35;17.70;;;9.87;;
7383;SDS011;3733;47.994;8.820;2022-11-03T10:14:01;16.13;;;9.10;;
7383;SDS011;3733;47.994;8.820;2022-11-03T10:16:27;13.73;;;8.60;;
7383;SDS011;3733;47.994;8.820;2022-11-03T10:18:53;19.10;;;9.80;;
7383;SDS011;3733;47.994;8.820;2022-11-03T10:21:31;20.10;;;11.80;;
7383;SDS011;3733;47.994;8.820;2022-11-03T10:24:01;20.37;;;10.57;;
7383;SDS011;3733;47.994;8.820;2022-11-03T10:26:27;20.27;;;10.80;;
7383;SDS011;3733;47.994;8.820;2022-11-03T10:29:00;16.60;;;10.13;;
7383;SDS011;3733;47.994;8.820;2022-11-03T10:31:34;17.37;;;9.90;;
7383;SDS011;3733;47.994;8.820;2022-11-03T10:34:00;15.97;;;9.93;;
7383;SDS011;3733;47.994;8.820;2022-11-03T10:36:27;14.07;;;9.80;;
7383;SDS011;3733;47.994;8.820;2022-11-03T10:38:54;14.73;;;10.10;;
7383;SDS011;3733;47.994;8.820;2022-11-03T10:41:25;19.93;;;10.47;;
7383;SDS011;3733;47.994;8.820;2022-11-03T10:46:56;18.30;;;10.53;;
7383;SDS011;3733;47.994;8.820;2022-11-03T10:49:30;17.27;;;10.30;;
7383;SDS011;3733;47.994;8.820;2022-11-03T10:54:45;15.70;;;10.57;;
7383;SDS011;3733;47.994;8.820;2022-11-03T10:57:12;20.70;;;11.53;;
7383;SDS011;3733;47.994;8.820;2022-11-03T10:59:38;14.40;;;9.90;;
7383;SDS011;3733;47.994;8.820;2022-11-03T11:02:17;16.50;;;10.00;;
7383;SDS011;3733;47.994;8.820;2022-11-03T11:04:45;20.57;;;11.10;;
7383;SDS011;3733;47.994;8.820;2022-11-03T11:07:20;17.50;;;11.50;;
7383;SDS011;3733;47.994;8.820;2022-11-03T11:09:49;19.70;;;11.30;;
7383;SDS011;3733;47.994;8.820;2022-11-03T11:12:17;24.00;;;10.73;;
7383;SDS011;3733;47.994;8.820;2022-11-03T11:14:57;16.60;;;10.73;;
7383;SDS011;3733;47.994;8.820;2022-11-03T11:22:48;18.00;;;11.43;;
7383;SDS011;3733;47.994;8.820;2022-11-03T11:25:15;18.10;;;11.20;;
7383;SDS011;3733;47.994;8.820;2022-11-03T11:35:09;17.33;;;10.67;;
7383;SDS011;3733;47.994;8.820;2022-11-03T11:37:36;18.10;;;11.33;;
7383;SDS011;3733;47.994;8.820;2022-11-03T11:40:12;18.13;;;11.73;;
7383;SDS011;3733;47.994;8.820;2022-11-03T11:48:31;24.60;;;11.80;;
7383;SDS011;3733;47.994;8.820;2022-11-03T11:50:57;19.40;;;11.70;;
7383;SDS011;3733;47.994;8.820;2022-11-03T11:53:24;19.53;;;10.93;;
7383;SDS011;3733;47.994;8.820;2022-11-03T12:00:49;19.30;;;10.97;;
7383;SDS011;3733;47.994;8.820;2022-11-03T12:03:28;17.10;;;11.03;;
7383;SDS011;3733;47.994;8.820;2022-11-03T12:06:02;21.47;;;11.70;;
7383;SDS011;3733;47.994;8.820;2022-11-03T12:08:29;17.63;;;11.30;;
7383;SDS011;3733;47.994;8.820;2022-11-03T12:11:00;21.60;;;13.03;;
7383;SDS011;3733;47.994;8.820;2022-11-03T12:16:07;21.73;;;12.17;;
7383;SDS011;3733;47.994;8.820;2022-11-03T12:18:37;23.13;;;12.07;;
7383;SDS011;3733;47.994;8.820;2022-11-03T12:21:05;28.77;;;11.37;;
7383;SDS011;3733;47.994;8.820;2022-11-03T12:23:44;23.67;;;12.00;;
7383;SDS011;3733;47.994;8.820;2022-11-03T12:26:38;19.33;;;11.23;;
7383;SDS011;3733;47.994;8.820;2022-11-03T12:29:06;22.50;;;12.07;;
7383;SDS011;3733;47.994;8.820;2022-11-03T12:31:32;21.20;;;11.47;;
7383;SDS011;3733;47.994;8.820;2022-11-03T12:33:57;25.10;;;12.23;;
7383;SDS011;3733;47.994;8.820;2022-11-03T12:36:23;23.07;;;13.23;;
7383;SDS011;3733;47.994;8.820;2022-11-03T12:38:49;17.60;;;11.23;;
7383;SDS011;3733;47.994;8.820;2022-11-03T12:41:14;17.73;;;12.07;;
7383;SDS011;3733;47.994;8.820;2022-11-03T12:43:46;20.37;;;11.60;;
7383;SDS011;3733;47.994;8.820;2022-11-03T12:46:14;18.83;;;11.20;;
7383;SDS011;3733;47.994;8.820;2022-11-03T12:48:44;21.63;;;11.57;;
7383;SDS011;3733;47.994;8.820;2022-11-03T12:51:21;21.30;;;10.77;;
7383;SDS011;3733;47.994;8.820;2022-11-03T12:53:48;16.07;;;10.43;;
7383;SDS011;3733;47.994;8.820;2022-11-03T12:56:14;16.90;;;11.50;;
7383;SDS011;3733;47.994;8.820;2022-11-03T12:58:41;20.20;;;12.47;;
7383;SDS011;3733;47.994;8.820;2022-11-03T13:01:07;18.03;;;11.10;;
7383;SDS011;3733;47.994;8.820;2022-11-03T13:03:33;20.57;;;11.90;;
7383;SDS011;3733;47.994;8.820;2022-11-03T13:06:00;19.00;;;12.17;;
7383;SDS011;3733;47.994;8.820;2022-11-03T13:08:29;25.67;;;12.30;;
7383;SDS011;3733;47.994;8.820;2022-11-03T13:10:55;19.40;;;11.23;;
7383;SDS011;3733;47.994;8.820;2022-11-03T13:13:21;17.10;;;10.47;;
7383;SDS011;3733;47.994;8.820;2022-11-03T13:15:47;15.57;;;9.97;;
7383;SDS011;3733;47.994;8.820;2022-11-03T13:18:12;15.73;;;9.90;;
7383;SDS011;3733;47.994;8.820;2022-11-03T13:20:38;15.40;;;10.50;;
7383;SDS011;3733;47.994;8.820;2022-11-03T13:23:04;19.50;;;12.67;;
7383;SDS011;3733;47.994;8.820;2022-11-03T13:25:30;20.00;;;11.40;;
7383;SDS011;3733;47.994;8.820;2022-11-03T13:27:56;15.60;;;10.53;;
7383;SDS011;3733;47.994;8.820;2022-11-03T13:30:22;16.87;;;10.63;;
7383;SDS011;3733;47.994;8.820;2022-11-03T13:32:49;17.27;;;9.80;;
7383;SDS011;3733;47.994;8.820;2022-11-03T13:35:15;17.30;;;10.67;;
7383;SDS011;3733;47.994;8.820;2022-11-03T13:37:41;20.37;;;11.20;;
7383;SDS011;3733;47.994;8.820;2022-11-03T13:40:07;20.47;;;11.20;;
7383;SDS011;3733;47.994;8.820;2022-11-03T13:42:35;14.63;;;10.27;;
7383;SDS011;3733;47.994;8.820;2022-11-03T13:45:01;18.63;;;10.37;;
7383;SDS011;3733;47.994;8.820;2022-11-03T13:47:26;22.77;;;10.23;;
7383;SDS011;3733;47.994;8.820;2022-11-03T13:49:52;17.00;;;10.80;;
7383;SDS011;3733;47.994;8.820;2022-11-03T13:52:18;16.10;;;10.57;;
7383;SDS011;3733;47.994;8.820;2022-11-03T13:54:44;18.43;;;11.23;;
7383;SDS011;3733;47.994;8.820;2022-11-03T13:57:10;14.77;;;10.40;;
7383;SDS011;3733;47.994;8.820;2022-11-03T13:59:36;18.60;;;11.77;;
7383;SDS011;3733;47.994;8.820;2022-11-03T14:02:02;16.53;;;10.77;;
7383;SDS011;3733;47.994;8.820;2022-11-03T14:04:28;23.10;;;11.90;;
7383;SDS011;3733;47.994;8.820;2022-11-03T14:06:54;17.60;;;11.20;;
7383;SDS011;3733;47.994;8.820;2022-11-03T14:09:19;21.10;;;12.43;;
7383;SDS011;3733;47.994;8.820;2022-11-03T14:11:45;14.63;;;10.50;;
7383;SDS011;3733;47.994;8.820;2022-11-03T14:14:29;19.63;;;12.03;;
7383;SDS011;3733;47.994;8.820;2022-11-03T14:16:55;16.70;;;11.17;;
7383;SDS011;3733;47.994;8.820;2022-11-03T14:19:20;18.60;;;12.07;;
7383;SDS011;3733;47.994;8.820;2022-11-03T14:21:47;16.13;;;10.83;;
7383;SDS011;3733;47.994;8.820;2022-11-03T14:24:13;17.20;;;10.00;;
7383;SDS011;3733;47.994;8.820;2022-11-03T14:26:39;15.70;;;10.70;;
7383;SDS011;3733;47.994;8.820;2022-11-03T14:29:05;18.27;;;11.00;;
7383;SDS011;3733;47.994;8.820;2022-11-03T14:31:30;22.43;;;12.63;;
7383;SDS011;3733;47.994;8.820;2022-11-03T14:33:56;24.10;;;11.83;;
7383;SDS011;3733;47.994;8.820;2022-11-03T14:36:22;21.70;;;12.90;;
7383;SDS011;3733;47.994;8.820;2022-11-03T14:38:47;19.60;;;12.13;;
7383;SDS011;3733;47.994;8.820;2022-11-03T14:41:13;20.13;;;12.90;;
7383;SDS011;3733;47.994;8.820;2022-11-03T14:43:57;22.60;;;12.63;;
7383;SDS011;3733;47.994;8.820;2022-11-03T14:46:23;18.73;;;11.60;;
7383;SDS011;3733;47.994;8.820;2022-11-03T14:48:49;20.33;;;12.40;;
7383;SDS011;3733;47.994;8.820;2022-11-03T14:51:14;20.83;;;12.07;;
7383;SDS011;3733;47.994;8.820;2022-11-03T14:53:40;19.23;;;10.97;;
7383;SDS011;3733;47.994;8.820;2022-11-03T14:56:06;20.17;;;11.80;;
7383;SDS011;3733;47.994;8.820;2022-11-03T14:58:31;20.50;;;12.13;;
7383;SDS011;3733;47.994;8.820;2022-11-03T15:00:57;19.87;;;11.70;;
7383;SDS011;3733;47.994;8.820;2022-11-03T15:03:23;24.93;;;11.60;;
7383;SDS011;3733;47.994;8.820;2022-11-03T15:05:48;20.70;;;12.07;;
7383;SDS011;3733;47.994;8.820;2022-11-03T15:08:18;21.90;;;12.50;;
7383;SDS011;3733;47.994;8.820;2022-11-03T15:10:44;19.73;;;11.40;;
7383;SDS011;3733;47.994;8.820;2022-11-03T15:13:10;20.63;;;13.00;;
7383;SDS011;3733;47.994;8.820;2022-11-03T15:15:35;21.13;;;12.50;;
7383;SDS011;3733;47.994;8.820;2022-11-03T15:18:04;19.33;;;13.23;;
7383;SDS011;3733;47.994;8.820;2022-11-03T15:20:30;26.47;;;14.00;;
7383;SDS011;3733;47.994;8.820;2022-11-03T15:22:59;26.70;;;14.57;;
7383;SDS011;3733;47.994;8.820;2022-11-03T15:25:29;22.40;;;13.10;;
7383;SDS011;3733;47.994;8.820;2022-11-03T15:27:54;24.17;;;14.43;;
7383;SDS011;3733;47.994;8.820;2022-11-03T15:30:20;23.13;;;14.90;;
7383;SDS011;3733;47.994;8.820;2022-11-03T15:32:46;26.90;;;14.90;;
7383;SDS011;3733;47.994;8.820;2022-11-03T15:35:11;25.30;;;14.03;;
7383;SDS011;3733;47.994;8.820;2022-11-03T15:37:37;28.10;;;16.20;;
7383;SDS011;3733;47.994;8.820;2022-11-03T15:40:03;24.97;;;14.50;;
7383;SDS011;3733;47.994;8.820;2022-11-03T15:42:29;28.00;;;16.50;;
7383;SDS011;3733;47.994;8.820;2022-11-03T15:44:55;24.17;;;15.37;;
7383;SDS011;3733;47.994;8.820;2022-11-03T15:47:20;23.90;;;13.87;;
7383;SDS011;3733;47.994;8.820;2022-11-03T15:49:46;26.73;;;15.70;;
7383;SDS011;3733;47.994;8.820;2022-11-03T15:52:12;22.10;;;13.70;;
7383;SDS011;3733;47.994;8.820;2022-11-03T15:54:37;29.13;;;15.67;;
7383;SDS011;3733;47.994;8.820;2022-11-03T15:57:03;26.47;;;13.97;;
7383;SDS011;3733;47.994;8.820;2022-11-03T15:59:28;28.00;;;13.90;;
7383;SDS011;3733;47.994;8.820;2022-11-03T16:01:54;21.17;;;12.43;;
7383;SDS011;3733;47.994;8.820;2022-11-03T16:04:19;19.10;;;11.00;;
7383;SDS011;3733;47.994;8.820;2022-11-03T16:06:45;21.70;;;12.90;;
7383;SDS011;3733;47.994;8.820;2022-11-03T16:09:11;29.10;;;10.67;;
7383;SDS011;3733;47.994;8.820;2022-11-03T16:11:36;21.63;;;11.50;;
7383;SDS011;3733;47.994;8.820;2022-11-03T16:14:02;20.00;;;11.50;;
7383;SDS011;3733;47.994;8.820;2022-11-03T16:16:28;18.73;;;11.90;;
7383;SDS011;3733;47.994;8.820;2022-11-03T16:18:53;28.63;;;11.50;;
7383;SDS011;3733;47.994;8.820;2022-11-03T16:21:19;38.60;;;18.40;;
7383;SDS011;3733;47.994;8.820;2022-11-03T16:23:44;26.57;;;14.97;;
7383;SDS011;3733;47.994;8.820;2022-11-03T16:26:10;21.20;;;12.13;;
7383;SDS011;3733;47.994;8.820;2022-11-03T16:28:36;25.27;;;13.17;;
7383;SDS011;3733;47.994;8.820;2022-11-03T16:31:01;19.53;;;12.33;;